Time;durP1;ratioP1;P1;durP2;ratioP2;P2;SDS_P1;SDS_P2;PMS_P1;PMS_P2;Temp;Humidity;BMP_temperature;BMP_pressure;BME280_temperature;BME280_humidity;BME280_pressure;Samples;Min_cycle;Max_cycle;Signal;HPM_P1;HPM_P2
2022/01/10 00:03:12;;;;;;;4.60;2.53;;;;;;;4.82;100.00;93199.38;10387600;28;20134;-68
2022/01/10 00:08:14;;;;;;;5.50;2.10;;;;;;;4.75;100.00;93205.78;10386314;28;20139;-76
2022/01/10 00:13:15;;;;;;;5.70;2.40;;;;;;;4.89;100.00;93207.84;10404134;28;20486;-70
2022/01/10 00:18:15;;;;;;;5.55;3.03;;;;;;;5.01;100.00;93204.84;10369575;28;20120;-70
2022/01/10 00:23:16;;;;;;;6.90;3.15;;;;;;;4.97;100.00;93218.69;10361848;28;20022;-74
2022/01/10 00:28:16;;;;;;;8.25;3.58;;;;;;;4.84;100.00;93211.31;10361667;28;20030;-69
2022/01/10 00:33:16;;;;;;;9.23;3.42;;;;;;;4.66;100.00;93206.63;10380377;28;20036;-75
2022/01/10 00:38:17;;;;;;;7.40;3.33;;;;;;;4.54;100.00;93213.06;10386621;28;20022;-72
2022/01/10 00:43:29;;;;;;;8.80;3.75;;;;;;;4.45;100.00;93212.03;10385002;28;20070;-74
2022/01/10 00:48:30;;;;;;;10.27;3.85;;;;;;;4.57;100.00;93209.84;10403586;28;20025;-74
2022/01/10 00:53:30;;;;;;;6.68;3.38;;;;;;;4.63;100.00;93199.97;10384083;28;20025;-75
2022/01/10 00:58:31;;;;;;;7.22;3.78;;;;;;;4.73;100.00;93202.59;10369625;28;20032;-70
2022/01/10 01:03:31;;;;;;;7.47;3.20;;;;;;;4.78;100.00;93201.78;10402894;28;20487;-73
2022/01/10 01:08:34;;;;;;;5.82;3.17;;;;;;;4.80;100.00;93207.63;10385078;28;20037;-69
2022/01/10 01:19:08;;;;;;;6.60;4.00;;;;;;;4.71;100.00;93194.09;10402040;28;20043;-75
2022/01/10 01:24:07;;;;;;;7.90;4.22;;;;;;;4.74;100.00;93196.19;10401954;28;20061;-78
2022/01/10 01:29:11;;;;;;;6.90;3.75;;;;;;;4.71;100.00;93194.09;10401820;28;20427;-73
2022/01/10 01:34:14;;;;;;;7.93;3.85;;;;;;;4.75;100.00;93189.03;10367465;28;20563;-70
2022/01/10 01:39:21;;;;;;;8.40;3.78;;;;;;;4.57;100.00;93187.78;10373308;28;20447;-71
2022/01/10 01:44:21;;;;;;;5.20;3.35;;;;;;;4.41;100.00;93177.22;10362850;28;20484;-72
2022/01/10 01:49:22;;;;;;;11.75;4.63;;;;;;;4.36;100.00;93181.75;10359072;28;20034;-75
2022/01/10 01:54:22;;;;;;;7.55;4.25;;;;;;;4.28;100.00;93175.13;10359304;28;20033;-74
2022/01/10 01:59:23;;;;;;;7.82;4.15;;;;;;;4.09;100.00;93177.59;10359379;28;20787;-72
2022/01/10 02:04:23;;;;;;;5.65;2.97;;;;;;;4.09;100.00;93181.06;10359065;28;20022;-71
2022/01/10 02:09:24;;;;;;;13.50;5.00;;;;;;;3.98;100.00;93179.50;10350555;28;20153;-70
2022/01/10 02:14:25;;;;;;;11.80;4.60;;;;;;;4.03;100.00;93182.16;10350628;28;20053;-74
2022/01/10 02:19:25;;;;;;;12.10;4.75;;;;;;;4.06;100.00;93181.59;10365858;28;20030;-70
2022/01/10 02:24:26;;;;;;;10.43;4.60;;;;;;;4.11;100.00;93170.94;10346773;28;20083;-72
2022/01/10 02:29:26;;;;;;;8.82;4.45;;;;;;;4.18;100.00;93183.94;10365395;28;20557;-74
2022/01/10 02:34:28;;;;;;;8.55;4.72;;;;;;;4.31;100.00;93185.22;10353010;28;20535;-71
2022/01/10 02:39:28;;;;;;;15.15;6.82;;;;;;;4.22;100.00;93182.34;10372449;28;20419;-70
2022/01/10 02:44:29;;;;;;;18.27;6.63;;;;;;;4.31;100.00;93190.53;10369620;28;20744;-72
2022/01/10 02:49:30;;;;;;;12.68;6.25;;;;;;;4.40;100.00;93194.22;10356849;28;20492;-71
2022/01/10 02:54:30;;;;;;;16.88;6.97;;;;;;;4.34;100.00;93182.03;10349118;28;20091;-72
2022/01/10 02:59:31;;;;;;;12.93;6.70;;;;;;;4.25;100.00;93192.41;10348778;28;20200;-72
2022/01/10 03:04:31;;;;;;;13.23;7.60;;;;;;;3.99;100.00;93198.88;10349254;28;20079;-70
2022/01/10 03:09:32;;;;;;;13.95;7.28;;;;;;;3.87;100.00;93205.28;10348392;28;20451;-70
2022/01/10 03:14:32;;;;;;;16.45;7.15;;;;;;;3.97;100.00;93198.38;10347692;28;20054;-77
2022/01/10 03:19:33;;;;;;;13.27;7.65;;;;;;;3.95;100.00;93206.63;10346920;28;20476;-70
2022/01/10 03:24:33;;;;;;;17.08;6.50;;;;;;;3.92;100.00;93199.16;10347584;28;20108;-71
2022/01/10 03:29:34;;;;;;;18.77;7.97;;;;;;;3.80;100.00;93202.13;10364297;28;20120;-75
2022/01/10 03:34:35;;;;;;;13.65;6.63;;;;;;;3.86;100.00;93206.34;10369048;28;20021;-76
2022/01/10 03:39:36;;;;;;;12.57;6.40;;;;;;;3.97;100.00;93211.66;10388630;28;20048;-75
2022/01/10 03:44:36;;;;;;;10.45;5.70;;;;;;;3.98;100.00;93208.72;10405804;28;20060;-75
2022/01/10 03:49:37;;;;;;;11.77;5.20;;;;;;;3.90;100.00;93203.97;10371449;28;20112;-70
2022/01/10 03:54:39;;;;;;;9.82;5.22;;;;;;;3.83;100.00;93206.09;10387796;28;20021;-76
2022/01/10 03:59:41;;;;;;;9.15;4.82;;;;;;;3.71;100.00;93220.47;10388257;28;20483;-75
2022/01/10 04:04:41;;;;;;;10.10;4.90;;;;;;;3.54;100.00;93218.06;10387249;28;20022;-75
2022/01/10 04:09:42;;;;;;;7.55;3.95;;;;;;;3.52;100.00;93222.09;10387305;28;20037;-75
2022/01/10 04:14:42;;;;;;;6.72;4.10;;;;;;;3.47;100.00;93230.03;10387156;28;20141;-75
2022/01/10 04:19:43;;;;;;;6.22;3.85;;;;;;;3.46;100.00;93223.13;10387638;28;20116;-75
2022/01/10 04:24:43;;;;;;;6.30;4.10;;;;;;;3.43;100.00;93229.78;10387515;28;20491;-76
2022/01/10 04:29:44;;;;;;;8.30;4.85;;;;;;;3.56;100.00;93242.53;10385824;28;20032;-71
2022/01/10 04:34:47;;;;;;;8.02;4.47;;;;;;;3.56;100.00;93245.19;10386915;28;20101;-75
2022/01/10 04:39:48;;;;;;;6.65;4.35;;;;;;;3.66;100.00;93246.25;10386261;28;20637;-74
2022/01/10 04:44:49;;;;;;;6.50;4.22;;;;;;;3.59;100.00;93254.50;10371845;28;20029;-76
2022/01/10 04:55:00;;;;;;;10.85;3.63;;;;;;;3.49;100.00;93259.78;10361633;28;20115;-71
2022/01/10 05:00:04;;;;;;;8.57;5.30;;;;;;;3.38;100.00;93264.31;10361727;28;20050;-81
2022/01/10 05:05:05;;;;;;;7.93;4.25;;;;;;;3.19;100.00;93262.16;10346457;28;20551;-72
2022/01/10 05:10:06;;;;;;;9.15;5.45;;;;;;;3.27;100.00;93263.50;10345893;28;20044;-73
2022/01/10 05:15:07;;;;;;;14.77;5.45;;;;;;;3.07;100.00;93273.03;10385329;28;20068;-79
2022/01/10 05:20:08;;;;;;;14.00;5.90;;;;;;;3.15;100.00;93279.66;10359899;28;20052;-75
2022/01/10 05:25:09;;;;;;;6.40;4.07;;;;;;;3.04;100.00;93286.00;10363050;28;20139;-78
2022/01/10 05:30:10;;;;;;;10.82;5.63;;;;;;;2.99;100.00;93299.28;10359680;28;20478;-72
2022/01/10 05:35:11;;;;;;;10.65;6.38;;;;;;;2.97;100.00;93302.16;10359243;28;20149;-77
2022/01/10 05:40:12;;;;;;;11.93;6.47;;;;;;;2.84;100.00;93305.31;10359461;28;20030;-74
2022/01/10 05:45:14;;;;;;;11.95;7.00;;;;;;;2.76;100.00;93314.56;10358595;28;20038;-77
2022/01/10 05:50:19;;;;;;;20.48;7.15;;;;;;;2.79;100.00;93316.72;10399034;28;20026;-77
2022/01/10 05:55:20;;;;;;;17.50;9.00;;;;;;;2.77;100.00;93313.53;10382582;28;20025;-74
2022/01/10 06:00:22;;;;;;;15.88;8.20;;;;;;;2.58;100.00;93321.13;10382163;28;20529;-79
2022/01/10 06:05:29;;;;;;;12.65;6.90;;;;;;;2.61;100.00;93338.38;10382579;28;20526;-75
2022/01/10 06:10:30;;;;;;;15.30;8.65;;;;;;;2.65;100.00;93340.28;10401030;28;20017;-78
2022/01/10 06:15:31;;;;;;;14.75;7.55;;;;;;;2.73;100.00;93326.53;10357096;28;20045;-75
2022/01/10 06:20:32;;;;;;;21.75;8.85;;;;;;;2.83;100.00;93336.38;10357909;28;20139;-73
2022/01/10 06:25:32;;;;;;;16.35;8.80;;;;;;;2.91;100.00;93332.41;10341566;28;20415;-78
2022/01/10 06:30:33;;;;;;;19.65;7.72;;;;;;;3.03;100.00;93346.25;10341376;28;20022;-72
2022/01/10 06:35:35;;;;;;;14.15;7.30;;;;;;;3.04;100.00;93350.53;10341399;28;20614;-78
2022/01/10 06:40:35;;;;;;;17.25;6.35;;;;;;;2.94;100.00;93352.31;10340797;28;20117;-72
2022/01/10 06:45:37;;;;;;;17.23;7.90;;;;;;;2.77;100.00;93355.97;10340713;28;20478;-73
2022/01/10 06:50:38;;;;;;;15.23;8.00;;;;;;;2.68;100.00;93357.50;10357362;28;20033;-76
2022/01/10 06:55:39;;;;;;;15.20;7.50;;;;;;;2.77;100.00;93361.28;10364625;28;20033;-76
2022/01/10 07:00:41;;;;;;;11.77;7.22;;;;;;;2.77;100.00;93363.13;10388267;28;20454;-72
2022/01/10 07:05:41;;;;;;;12.95;7.97;;;;;;;2.71;100.00;93360.44;10389297;28;20039;-76
2022/01/10 07:10:42;;;;;;;19.10;7.50;;;;;;;2.73;100.00;93368.16;10388632;28;20025;-72
2022/01/10 07:15:42;;;;;;;17.50;8.10;;;;;;;2.77;100.00;93365.78;10406310;28;20073;-77
2022/01/10 07:20:43;;;;;;;18.55;9.57;;;;;;;2.87;100.00;93376.44;10389537;28;20701;-76
2022/01/10 07:25:43;;;;;;;18.15;9.52;;;;;;;2.91;100.00;93374.88;10363580;28;20038;-75
2022/01/10 07:30:44;;;;;;;14.63;9.73;;;;;;;2.97;100.00;93391.59;10347558;28;20393;-77
2022/01/10 07:35:45;;;;;;;25.50;10.40;;;;;;;3.02;100.00;93392.44;10357534;28;20040;-73
2022/01/10 07:40:45;;;;;;;21.95;11.48;;;;;;;3.04;100.00;93394.81;10404631;28;20041;-72
2022/01/10 07:45:46;;;;;;;33.17;13.82;;;;;;;3.25;100.00;93396.50;10387162;28;20422;-75
2022/01/10 07:50:46;;;;;;;36.88;18.83;;;;;;;3.39;100.00;93396.00;10405154;28;20095;-73
2022/01/10 07:55:47;;;;;;;25.60;13.18;;;;;;;3.34;100.00;93403.97;10371136;28;20510;-76
2022/01/10 08:00:47;;;;;;;24.20;13.63;;;;;;;3.26;100.00;93389.34;10404093;28;20032;-74
2022/01/10 08:05:48;;;;;;;21.52;10.10;;;;;;;3.38;100.00;93392.56;10385683;28;20095;-75
2022/01/10 08:10:49;;;;;;;21.10;10.68;;;;;;;3.53;100.00;93389.16;10386791;28;20033;-77
2022/01/10 08:15:51;;;;;;;16.20;8.93;;;;;;;3.69;100.00;93389.97;10332651;28;20085;-76
2022/01/10 08:20:51;;;;;;;24.35;10.48;;;;;;;3.81;100.00;93394.25;10321823;28;20037;-73
2022/01/10 08:25:52;;;;;;;18.52;9.25;;;;;;;3.71;100.00;93397.69;10322645;28;20341;-77
2022/01/10 08:30:53;;;;;;;21.38;10.48;;;;;;;3.57;100.00;93387.56;10321279;28;20034;-79
2022/01/10 08:35:54;;;;;;;22.00;10.93;;;;;;;3.56;100.00;93393.16;10297293;28;20052;-78
2022/01/10 08:40:54;;;;;;;28.00;13.25;;;;;;;3.69;100.00;93400.59;10280471;28;20034;-78
2022/01/10 08:45:55;;;;;;;28.27;12.90;;;;;;;3.69;100.00;93397.16;10281453;28;20050;-75
2022/01/10 08:50:55;;;;;;;30.88;12.60;;;;;;;3.82;100.00;93401.94;10280954;28;20042;-73
2022/01/10 08:55:56;;;;;;;23.45;12.80;;;;;;;3.95;100.00;93408.63;10263961;28;20062;-73
2022/01/10 09:00:56;;;;;;;23.20;11.25;;;;;;;3.92;100.00;93403.81;10280013;28;20787;-71
2022/01/10 09:05:57;;;;;;;30.55;13.38;;;;;;;4.06;100.00;93396.94;10279108;28;20596;-77
2022/01/10 09:10:59;;;;;;;29.55;13.35;;;;;;;4.11;100.00;93406.75;10279098;28;20033;-72
2022/01/10 09:16:02;;;;;;;26.92;11.48;;;;;;;4.02;100.00;93411.81;10308630;28;20532;-73
2022/01/10 09:21:02;;;;;;;21.17;11.60;;;;;;;4.01;100.00;93404.91;10318892;28;20407;-78
2022/01/10 09:26:03;;;;;;;24.88;10.90;;;;;;;3.99;100.00;93412.34;10320614;28;20041;-77
2022/01/10 09:31:03;;;;;;;29.75;12.73;;;;;;;3.89;100.00;93407.81;10320018;28;20030;-77
2022/01/10 09:36:05;;;;;;;28.65;12.25;;;;;;;3.90;100.00;93403.31;10318863;28;20404;-78
2022/01/10 09:41:07;;;;;;;23.98;11.05;;;;;;;4.01;100.00;93412.09;10318912;28;20602;-77
2022/01/10 09:46:08;;;;;;;26.90;11.23;;;;;;;4.03;100.00;93409.94;10318277;28;20614;-74
2022/01/10 09:51:09;;;;;;;25.67;11.13;;;;;;;4.01;100.00;93409.44;10322010;28;20452;-73
2022/01/10 09:56:10;;;;;;;28.83;12.32;;;;;;;4.16;100.00;93411.28;10318223;28;20663;-77
2022/01/10 10:01:13;;;;;;;29.77;13.32;;;;;;;4.27;100.00;93419.00;10317713;28;20030;-74
2022/01/10 10:06:15;;;;;;;26.83;14.75;;;;;;;4.37;100.00;93409.44;10319620;28;20058;-76
2022/01/10 10:11:16;;;;;;;33.28;14.10;;;;;;;4.51;100.00;93405.16;10317556;28;20117;-72
2022/01/10 10:16:17;;;;;;;35.25;14.88;;;;;;;4.54;100.00;93406.50;10284602;28;20533;-78
2022/01/10 10:21:20;;;;;;;26.33;11.70;;;;;;;4.56;100.00;93402.50;10286862;28;20118;-77
2022/01/10 10:26:24;;;;;;;28.70;14.00;;;;;;;4.50;100.00;93394.78;10279381;28;20031;-73
2022/01/10 10:31:32;;;;;;;27.52;12.63;;;;;;;4.50;100.00;93398.25;10287060;28;20058;-78
2022/01/10 10:36:35;;;;;;;27.20;13.20;;;;;;;4.53;100.00;93395.03;10285400;28;20129;-74
2022/01/10 10:41:38;;;;;;;42.00;16.08;;;;;;;4.59;100.00;93393.97;10286219;28;20039;-74
2022/01/10 10:46:39;;;;;;;31.83;16.40;;;;;;;4.72;100.00;93395.28;10284725;28;20518;-78
2022/01/10 10:51:40;;;;;;;40.83;18.30;;;;;;;4.76;100.00;93392.91;10284008;28;20640;-74
2022/01/10 10:56:43;;;;;;;38.03;17.15;;;;;;;4.56;100.00;93402.50;10284438;28;20027;-73
2022/01/10 11:01:44;;;;;;;39.08;18.85;;;;;;;4.51;100.00;93405.16;10283889;28;20034;-72
2022/01/10 11:06:45;;;;;;;42.33;19.60;;;;;;;4.53;100.00;93413.66;10284462;28;20034;-73
2022/01/10 11:11:46;;;;;;;45.13;20.70;;;;;;;4.55;100.00;93419.53;10285025;28;20022;-74
2022/01/10 11:16:49;;;;;;;47.30;21.65;;;;;;;4.38;100.00;93417.16;10300102;28;20059;-79
2022/01/10 11:22:05;;;;;;;42.67;20.27;;;;;;;4.51;100.00;93422.97;10287153;28;20034;-79
2022/01/10 11:27:36;;;;;;;43.90;18.45;;;;;;;4.54;100.00;93417.94;10283308;28;20065;-80
2022/01/10 11:32:49;;;;;;;41.55;18.67;;;;;;;4.60;100.00;93424.03;10277813;28;20035;-77
2022/01/10 11:37:49;;;;;;;30.85;14.65;;;;;;;4.50;100.00;93419.53;10282802;28;20026;-73
2022/01/10 11:42:56;;;;;;;35.30;15.35;;;;;;;4.50;100.00;93416.88;10284628;28;20049;-73
2022/01/10 11:48:14;;;;;;;28.63;12.63;;;;;;;4.51;100.00;93421.13;10282459;28;20080;-73
2022/01/10 11:53:16;;;;;;;22.17;10.60;;;;;;;4.49;100.00;93425.13;10282544;28;20106;-73
2022/01/10 11:58:22;;;;;;;19.75;10.15;;;;;;;4.50;100.00;93426.72;10266694;28;20027;-74
2022/01/10 12:03:24;;;;;;;20.33;9.45;;;;;;;4.42;100.00;93436.03;10265880;28;20041;-75
2022/01/10 12:08:24;;;;;;;23.38;12.38;;;;;;;4.44;100.00;93433.91;10299009;28;20027;-76
2022/01/10 12:13:28;;;;;;;25.15;10.50;;;;;;;4.54;100.00;93435.75;10317016;28;20440;-72
2022/01/10 12:18:29;;;;;;;22.20;8.85;;;;;;;4.52;100.00;93445.84;10345024;28;20040;-76
2022/01/10 12:23:30;;;;;;;20.55;9.63;;;;;;;4.42;100.00;93438.69;10361499;28;20022;-77
2022/01/10 12:28:30;;;;;;;14.27;6.93;;;;;;;4.22;100.00;93448.25;10345865;28;20571;-77
2022/01/10 12:33:31;;;;;;;11.18;6.38;;;;;;;3.99;100.00;93444.25;10361720;28;20025;-72
2022/01/10 12:38:33;;;;;;;8.40;4.82;;;;;;;3.64;100.00;93459.03;10346586;28;20041;-76
2022/01/10 12:43:34;;;;;;;8.25;4.57;;;;;;;3.50;100.00;93463.25;10345200;28;20022;-76
2022/01/10 12:48:38;;;;;;;13.35;4.75;;;;;;;3.34;100.00;93471.16;10361997;28;20030;-78
2022/01/10 12:53:40;;;;;;;9.25;4.50;;;;;;;3.37;100.00;93469.84;10344449;28;20029;-74
2022/01/10 12:58:41;;;;;;;6.65;3.25;;;;;;;3.34;100.00;93481.78;10360376;28;20053;-77
2022/01/10 13:03:53;;;;;;;8.10;3.65;;;;;;;3.32;100.00;93485.75;10328047;28;20161;-74
2022/01/10 13:08:54;;;;;;;7.63;3.28;;;;;;;3.31;100.00;93498.22;10369664;28;20120;-76
2022/01/10 13:14:05;;;;;;;9.73;3.50;;;;;;;3.25;100.00;93500.06;10384239;28;20041;-72
2022/01/10 13:19:18;;;;;;;7.38;3.30;;;;;;;3.17;100.00;93497.88;10384317;28;20032;-71
2022/01/10 13:24:23;;;;;;;5.53;3.22;;;;;;;3.25;100.00;93505.38;10384320;28;20025;-73
2022/01/10 13:29:38;;;;;;;7.47;3.80;;;;;;;3.32;100.00;93509.63;10370223;28;20368;-72
2022/01/10 13:34:40;;;;;;;5.88;4.05;;;;;;;3.40;100.00;93517.94;10343881;28;20076;-77
2022/01/10 13:39:40;;;;;;;7.10;4.38;;;;;;;3.30;100.00;93520.53;10359228;28;20034;-78
2022/01/10 13:44:50;;;;;;;8.90;4.35;;;;;;;3.36;100.00;93524.00;10343202;28;20507;-77
2022/01/10 13:49:50;;;;;;;7.00;3.50;;;;;;;3.28;100.00;93535.94;10359933;28;20060;-77
2022/01/10 13:54:51;;;;;;;13.35;5.85;;;;;;;3.40;100.00;93543.69;10361349;28;20130;-79
2022/01/10 14:00:12;;;;;;;7.05;4.15;;;;;;;3.36;100.00;93551.38;10341996;28;20476;-74
2022/01/10 14:05:20;;;;;;;10.18;4.35;;;;;;;3.38;100.00;93559.09;10342590;28;20042;-71
2022/01/10 14:10:22;;;;;;;8.60;4.97;;;;;;;3.36;100.00;93567.31;10342941;28;20032;-76
2022/01/10 14:15:28;;;;;;;8.57;4.10;;;;;;;3.25;100.00;93574.41;10292523;28;20066;-78
2022/01/10 14:20:28;;;;;;;8.27;3.55;;;;;;;2.92;100.00;93575.50;10277735;28;20038;-79
2022/01/10 14:25:29;;;;;;;8.65;4.30;;;;;;;3.00;100.00;93583.00;10277526;28;20041;-74
2022/01/10 14:30:30;;;;;;;16.30;5.13;;;;;;;2.99;100.00;93589.34;10278925;28;20042;-76
2022/01/10 14:35:30;;;;;;;9.43;4.60;;;;;;;2.87;100.00;93596.69;10278085;28;20093;-75
2022/01/10 14:40:31;;;;;;;11.52;5.07;;;;;;;2.57;100.00;93605.97;10280932;28;20027;-81
2022/01/10 14:45:32;;;;;;;15.52;5.07;;;;;;;2.47;100.00;93605.88;10280657;28;20089;-79
2022/01/10 14:50:34;;;;;;;9.68;5.05;;;;;;;2.32;100.00;93609.19;10293527;28;20042;-76
2022/01/10 14:55:41;;;;;;;10.98;5.35;;;;;;;2.44;100.00;93623.06;10278073;28;20109;-77
2022/01/10 15:00:44;;;;;;;11.95;5.57;;;;;;;2.59;100.00;93638.34;10278604;28;20034;-76
2022/01/10 15:05:47;;;;;;;12.75;6.30;;;;;;;2.75;100.00;93639.31;10277945;28;20062;-77
2022/01/10 15:10:49;;;;;;;9.55;4.55;;;;;;;2.71;100.00;93646.16;10294905;28;20378;-80
2022/01/10 15:15:51;;;;;;;10.02;5.15;;;;;;;2.71;100.00;93649.63;10347186;28;20133;-77
2022/01/10 15:20:53;;;;;;;3.65;2.85;;;;;;;2.59;100.00;93648.97;10369207;28;20034;-77
2022/01/10 15:25:54;;;;;;;6.07;3.40;;;;;;;2.32;100.00;93655.03;10367638;28;20033;-75
2022/01/10 15:30:54;;;;;;;11.15;3.72;;;;;;;2.18;100.00;93667.09;10368039;28;20484;-73
2022/01/10 15:35:54;;;;;;;4.55;2.83;;;;;;;2.14;100.00;93668.63;10363596;28;20021;-74
2022/01/10 15:40:55;;;;;;;4.70;3.42;;;;;;;2.05;100.00;93678.84;10363485;28;20056;-78
2022/01/10 15:45:56;;;;;;;7.30;2.72;;;;;;;2.06;100.00;93685.75;10346789;28;20076;-71
2022/01/10 15:50:56;;;;;;;10.07;3.50;;;;;;;2.16;100.00;93695.66;10346252;28;20492;-76
2022/01/10 15:55:58;;;;;;;6.57;3.22;;;;;;;2.14;100.00;93703.09;10346347;28;20030;-78
2022/01/10 16:01:02;;;;;;;3.85;2.60;;;;;;;2.18;100.00;93709.50;10346169;28;20112;-74
2022/01/10 16:06:02;;;;;;;5.60;2.50;;;;;;;2.07;100.00;93713.84;10377438;28;20025;-72
2022/01/10 16:11:03;;;;;;;5.38;3.03;;;;;;;2.19;100.00;93713.72;10386055;28;20037;-73
2022/01/10 16:16:04;;;;;;;6.53;2.40;;;;;;;2.33;100.00;93727.41;10380959;28;20049;-74
2022/01/10 16:21:05;;;;;;;5.43;3.10;;;;;;;2.36;100.00;93748.16;10345201;28;20030;-74
2022/01/10 16:26:06;;;;;;;5.55;3.88;;;;;;;2.36;100.00;93748.94;10377464;28;20510;-73
2022/01/10 16:31:08;;;;;;;7.57;4.60;;;;;;;2.38;100.00;93756.66;10385631;28;20270;-74
2022/01/10 16:36:12;;;;;;;6.85;4.32;;;;;;;2.36;100.00;93758.78;10365756;28;20083;-72
2022/01/10 16:41:15;;;;;;;10.93;4.60;;;;;;;2.22;100.00;93771.59;10384875;28;20076;-76
2022/01/10 16:46:16;;;;;;;11.98;4.57;;;;;;;2.13;100.00;93768.53;10384994;28;20056;-70
2022/01/10 16:51:16;;;;;;;11.82;5.68;;;;;;;2.07;100.00;93782.75;10368919;28;20490;-72
2022/01/10 16:56:17;;;;;;;13.85;6.47;;;;;;;1.97;100.00;93774.69;10382485;28;20029;-74
2022/01/10 17:01:17;;;;;;;16.50;7.10;;;;;;;1.96;100.00;93796.91;10384187;28;20021;-75
2022/01/10 17:06:18;;;;;;;12.50;6.35;;;;;;;2.07;100.00;93796.00;10384169;28;20091;-72
2022/01/10 17:11:18;;;;;;;11.52;6.18;;;;;;;1.98;100.00;93808.06;10383852;28;20452;-70
2022/01/10 17:16:19;;;;;;;11.48;5.45;;;;;;;2.02;100.00;93823.25;10401585;28;20068;-70
2022/01/10 17:21:20;;;;;;;12.30;5.78;;;;;;;2.07;100.00;93821.72;10367683;28;20083;-76
2022/01/10 17:26:20;;;;;;;11.65;6.05;;;;;;;2.03;100.00;93832.00;10383502;28;20073;-74
2022/01/10 17:31:20;;;;;;;10.77;6.05;;;;;;;2.04;100.00;93830.97;10382171;28;20418;-77
2022/01/10 17:36:21;;;;;;;13.52;7.25;;;;;;;1.98;100.00;93829.25;10382707;28;20029;-75
2022/01/10 17:41:22;;;;;;;10.45;5.38;;;;;;;2.09;100.00;93832.88;10376945;28;20029;-71
2022/01/10 17:46:23;;;;;;;12.32;6.70;;;;;;;1.96;100.00;93839.31;10382848;28;20065;-73
2022/01/10 17:51:25;;;;;;;12.98;7.10;;;;;;;2.04;100.00;93847.66;10378762;28;20104;-74
2022/01/10 17:56:26;;;;;;;13.25;6.65;;;;;;;1.71;100.00;93851.09;10359028;28;20030;-78
2022/01/10 18:01:26;;;;;;;18.40;7.65;;;;;;;1.86;100.00;93867.25;10368921;28;20030;-73
2022/01/10 18:06:27;;;;;;;18.52;8.07;;;;;;;2.00;100.00;93882.84;10360080;28;20032;-77
2022/01/10 18:11:28;;;;;;;16.75;7.20;;;;;;;1.99;100.00;93887.31;10380578;28;20373;-73
2022/01/10 18:16:28;;;;;;;9.38;6.68;;;;;;;2.19;100.00;93886.03;10378317;28;20050;-73
2022/01/10 18:21:30;;;;;;;18.17;8.02;;;;;;;2.13;100.00;93892.31;10353648;28;20034;-78
2022/01/10 18:26:31;;;;;;;17.42;7.78;;;;;;;2.12;100.00;93902.13;10343311;28;20036;-75
2022/01/10 18:31:31;;;;;;;10.68;6.63;;;;;;;2.06;100.00;93900.41;10380151;28;20017;-73
2022/01/10 18:36:35;;;;;;;6.85;4.85;;;;;;;2.06;100.00;93900.41;10381438;28;20025;-73
2022/01/10 18:41:35;;;;;;;11.40;6.30;;;;;;;2.09;100.00;93901.78;10381618;28;20057;-77
2022/01/10 18:46:37;;;;;;;9.10;5.43;;;;;;;1.83;100.00;93914.63;10381750;28;20123;-76
2022/01/10 18:51:38;;;;;;;6.38;3.95;;;;;;;1.80;100.00;93915.91;10405019;28;20543;-76
2022/01/10 18:56:38;;;;;;;7.25;4.50;;;;;;;1.91;100.00;93926.66;10387962;28;20036;-72
2022/01/10 19:01:39;;;;;;;7.07;3.75;;;;;;;1.93;100.00;93932.53;10356749;28;20025;-81
2022/01/10 19:06:40;;;;;;;10.00;5.53;;;;;;;2.00;100.00;93938.50;10347288;28;20117;-74
2022/01/10 19:11:40;;;;;;;8.43;5.60;;;;;;;2.12;100.00;93946.34;10364291;28;20025;-73
2022/01/10 19:16:41;;;;;;;11.45;7.03;;;;;;;2.09;100.00;93941.53;10346102;28;20409;-76
2022/01/10 19:21:42;;;;;;;12.27;6.72;;;;;;;2.15;100.00;93951.16;10346686;28;20033;-80
2022/01/10 19:26:42;;;;;;;12.20;7.28;;;;;;;2.12;100.00;93955.13;10373340;28;20044;-76
2022/01/10 19:31:43;;;;;;;14.23;5.80;;;;;;;2.15;100.00;93959.13;10444975;22;20053;-72
2022/01/10 19:36:43;;;;;;;9.32;3.95;;;;;;;2.19;100.00;93955.78;10381278;28;20041;-73
2022/01/10 19:41:44;;;;;;;7.97;3.70;;;;;;;2.15;100.00;93965.25;10367692;28;20641;-72
2022/01/10 19:46:46;;;;;;;6.70;3.70;;;;;;;2.14;100.00;93958.34;10386745;28;20025;-75
2022/01/10 19:51:46;;;;;;;8.52;4.50;;;;;;;2.13;100.00;93964.66;10370743;28;20037;-70
2022/01/10 19:56:48;;;;;;;9.48;5.40;;;;;;;2.11;100.00;93974.72;10386877;28;20029;-75
2022/01/10 20:01:49;;;;;;;16.35;8.10;;;;;;;1.86;100.00;93978.53;10324186;28;20397;-74
2022/01/10 20:06:49;;;;;;;14.10;7.45;;;;;;;1.84;100.00;93977.16;10289950;28;20176;-74
2022/01/10 20:11:50;;;;;;;12.60;7.30;;;;;;;1.80;100.00;93984.78;10321015;28;20644;-70
2022/01/10 20:16:51;;;;;;;21.48;10.80;;;;;;;1.81;100.00;93985.56;10321743;28;20061;-75
2022/01/10 20:21:53;;;;;;;19.25;9.45;;;;;;;1.83;100.00;93984.31;10385858;28;20038;-76
2022/01/10 20:26:54;;;;;;;20.95;9.52;;;;;;;1.70;100.00;93989.88;10379571;28;20030;-75
2022/01/10 20:31:57;;;;;;;14.57;8.73;;;;;;;1.53;100.00;93992.47;10361982;28;20054;-74
2022/01/10 20:36:57;;;;;;;12.82;7.30;;;;;;;1.38;100.00;93992.94;10329795;28;20026;-77
2022/01/10 20:41:58;;;;;;;10.77;6.15;;;;;;;1.42;100.00;94003.88;10304829;28;20027;-78
2022/01/10 20:46:58;;;;;;;9.00;5.78;;;;;;;1.35;100.00;94001.38;10320189;28;20030;-77
2022/01/10 20:52:00;;;;;;;9.23;4.85;;;;;;;1.44;100.00;94005.28;10325892;28;20449;-71
2022/01/10 20:57:02;;;;;;;7.63;4.63;;;;;;;1.56;100.00;94015.03;10344980;28;20026;-72
2022/01/10 21:02:03;;;;;;;8.70;4.18;;;;;;;1.75;100.00;94011.16;10344534;28;20081;-72
2022/01/10 21:07:04;;;;;;;6.95;3.75;;;;;;;1.84;100.00;94023.00;10361270;28;20034;-74
2022/01/10 21:12:05;;;;;;;7.82;3.03;;;;;;;1.81;100.00;94025.31;10361896;28;20029;-71
2022/01/10 21:17:06;;;;;;;2.58;1.92;;;;;;;1.66;100.00;94023.97;10361911;28;20117;-73
2022/01/10 21:22:07;;;;;;;3.60;2.42;;;;;;;1.68;100.00;94029.84;10344853;28;20030;-71
2022/01/10 21:27:12;;;;;;;4.65;2.60;;;;;;;1.63;100.00;94028.94;10321616;28;20030;-72
2022/01/10 21:32:13;;;;;;;4.53;2.28;;;;;;;1.60;100.00;94037.34;10287496;28;20097;-71
2022/01/10 21:37:13;;;;;;;3.67;2.22;;;;;;;1.66;100.00;94033.75;10303212;28;20196;-72
2022/01/10 21:42:14;;;;;;;5.45;2.40;;;;;;;1.58;100.00;94036.78;10321048;28;20473;-71
2022/01/10 21:47:14;;;;;;;7.18;3.55;;;;;;;1.65;100.00;94040.91;10303222;28;20034;-72
2022/01/10 21:52:15;;;;;;;2.67;2.20;;;;;;;1.73;100.00;94042.41;10321439;28;20022;-72
2022/01/10 21:57:16;;;;;;;2.38;1.80;;;;;;;1.76;100.00;94044.56;10342667;28;20030;-71
2022/01/10 22:02:17;;;;;;;3.13;2.00;;;;;;;1.82;100.00;94032.22;10342369;28;20022;-71
2022/01/10 22:07:18;;;;;;;2.88;2.55;;;;;;;1.90;100.00;94047.75;10342814;28;20066;-71
2022/01/10 22:12:18;;;;;;;8.25;3.25;;;;;;;1.94;100.00;94059.50;10326201;28;20026;-71
2022/01/10 22:17:19;;;;;;;9.63;4.32;;;;;;;1.99;100.00;94062.22;10342024;28;20034;-71
2022/01/10 22:22:19;;;;;;;13.70;6.53;;;;;;;2.05;100.00;94073.72;10345783;28;20559;-75
2022/01/10 22:27:20;;;;;;;13.15;5.65;;;;;;;2.04;100.00;94085.38;10350857;28;20061;-71
2022/01/10 22:32:20;;;;;;;13.25;5.53;;;;;;;1.97;100.00;94100.63;10349939;28;20180;-73
2022/01/10 22:37:21;;;;;;;12.38;5.00;;;;;;;1.93;100.00;94100.28;10316814;28;20030;-72
2022/01/10 22:42:21;;;;;;;6.63;4.07;;;;;;;1.86;100.00;94105.69;10309941;28;20180;-71
2022/01/10 22:47:22;;;;;;;4.55;3.10;;;;;;;1.71;100.00;94102.72;10309926;28;20041;-71
2022/01/10 22:52:22;;;;;;;5.35;2.80;;;;;;;1.75;100.00;94095.94;10309947;28;20018;-74
2022/01/10 22:57:23;;;;;;;4.82;2.15;;;;;;;1.52;100.00;94100.25;10309065;28;20029;-71
2022/01/10 23:02:23;;;;;;;4.68;3.03;;;;;;;1.42;100.00;94101.84;10311303;28;20403;-78
2022/01/10 23:07:24;;;;;;;3.88;2.13;;;;;;;1.48;100.00;94099.09;10325896;28;20022;-71
2022/01/10 23:12:24;;;;;;;2.08;1.33;;;;;;;1.54;100.00;94100.00;10349696;28;20519;-72
2022/01/10 23:17:25;;;;;;;3.97;1.63;;;;;;;1.51;100.00;94103.13;10323880;28;20487;-71
2022/01/10 23:22:25;;;;;;;2.58;1.25;;;;;;;1.51;100.00;94109.22;10348371;28;20021;-71